sensor_id;sensor_type;location;lat;lon;timestamp;pressure;altitude;pressure_sealevel;temperature;humidity
27958;BME280;15295;42.658;23.374;2023-09-07T00:00:15;95081.38;;;24.92;50.11
27958;BME280;15295;42.658;23.374;2023-09-07T00:02:51;95100.53;;;25.08;50.02
27958;BME280;15295;42.658;23.374;2023-09-07T00:05:26;95087.84;;;24.98;50.09
27958;BME280;15295;42.658;23.374;2023-09-07T00:08:24;95118.03;;;24.94;50.81
27958;BME280;15295;42.658;23.374;2023-09-07T00:11:19;95110.59;;;24.91;50.99
27958;BME280;15295;42.658;23.374;2023-09-07T00:13:57;95086.81;;;24.72;51.21
27958;BME280;15295;42.658;23.374;2023-09-07T00:16:50;95091.00;;;24.76;51.29
27958;BME280;15295;42.658;23.374;2023-09-07T00:19:17;95095.47;;;24.74;50.95
27958;BME280;15295;42.658;23.374;2023-09-07T00:21:44;95059.25;;;24.56;50.67
27958;BME280;15295;42.658;23.374;2023-09-07T00:24:18;95114.06;;;24.86;50.30
27958;BME280;15295;42.658;23.374;2023-09-07T00:27:13;95095.84;;;24.67;50.74
27958;BME280;15295;42.658;23.374;2023-09-07T00:29:50;95065.44;;;24.36;50.59
27958;BME280;15295;42.658;23.374;2023-09-07T00:32:46;95097.53;;;24.40;51.34
27958;BME280;15295;42.658;23.374;2023-09-07T00:35:17;95092.44;;;24.39;51.54
27958;BME280;15295;42.658;23.374;2023-09-07T00:37:46;95077.28;;;24.31;51.80
27958;BME280;15295;42.658;23.374;2023-09-07T00:40:20;95077.91;;;24.26;51.98
27958;BME280;15295;42.658;23.374;2023-09-07T00:42:59;95075.28;;;24.31;51.99
27958;BME280;15295;42.658;23.374;2023-09-07T00:45:28;95062.06;;;24.32;51.74
27958;BME280;15295;42.658;23.374;2023-09-07T00:48:17;95085.44;;;24.43;52.14
27958;BME280;15295;42.658;23.374;2023-09-07T00:50:52;95088.56;;;24.36;52.38
27958;BME280;15295;42.658;23.374;2023-09-07T00:53:26;95083.16;;;24.33;52.23
27958;BME280;15295;42.658;23.374;2023-09-07T00:56:08;95100.94;;;24.44;52.00
27958;BME280;15295;42.658;23.374;2023-09-07T00:59:01;95112.66;;;24.58;51.70
27958;BME280;15295;42.658;23.374;2023-09-07T01:01:46;95090.25;;;24.43;51.88
27958;BME280;15295;42.658;23.374;2023-09-07T01:04:20;95049.34;;;24.31;51.55
27958;BME280;15295;42.658;23.374;2023-09-07T01:07:21;95084.78;;;24.48;52.06
27958;BME280;15295;42.658;23.374;2023-09-07T01:10:22;95097.03;;;24.75;51.44
27958;BME280;15295;42.658;23.374;2023-09-07T01:13:16;95110.41;;;24.71;51.85
27958;BME280;15295;42.658;23.374;2023-09-07T01:15:43;95053.28;;;24.24;52.29
27958;BME280;15295;42.658;23.374;2023-09-07T01:18:33;95070.63;;;24.28;52.19
27958;BME280;15295;42.658;23.374;2023-09-07T01:21:24;95113.31;;;24.52;52.73
27958;BME280;15295;42.658;23.374;2023-09-07T01:23:54;95077.81;;;24.44;52.37
27958;BME280;15295;42.658;23.374;2023-09-07T01:26:32;95065.56;;;24.41;52.02
27958;BME280;15295;42.658;23.374;2023-09-07T01:29:08;95042.47;;;24.08;52.81
27958;BME280;15295;42.658;23.374;2023-09-07T01:34:49;95106.31;;;24.57;52.34
27958;BME280;15295;42.658;23.374;2023-09-07T01:37:15;95054.09;;;24.16;52.77
27958;BME280;15295;42.658;23.374;2023-09-07T01:39:42;95073.63;;;24.16;53.17
27958;BME280;15295;42.658;23.374;2023-09-07T01:42:33;95081.22;;;24.15;53.14
27958;BME280;15295;42.658;23.374;2023-09-07T01:45:10;95036.00;;;23.93;53.34
27958;BME280;15295;42.658;23.374;2023-09-07T01:48:15;95101.56;;;24.48;52.48
27958;BME280;15295;42.658;23.374;2023-09-07T01:50:44;95104.13;;;24.61;52.43
27958;BME280;15295;42.658;23.374;2023-09-07T01:53:21;95079.78;;;24.52;52.06
27958;BME280;15295;42.658;23.374;2023-09-07T01:56:12;95102.56;;;24.60;52.09
27958;BME280;15295;42.658;23.374;2023-09-07T01:59:04;95103.53;;;24.57;52.29
27958;BME280;15295;42.658;23.374;2023-09-07T02:01:36;95064.47;;;24.15;52.62
27958;BME280;15295;42.658;23.374;2023-09-07T02:04:29;95048.53;;;24.07;52.40
27958;BME280;15295;42.658;23.374;2023-09-07T02:07:41;95066.34;;;24.18;52.94
27958;BME280;15295;42.658;23.374;2023-09-07T02:10:27;95053.28;;;24.24;52.55
27958;BME280;15295;42.658;23.374;2023-09-07T02:13:00;95096.56;;;24.52;52.73
27958;BME280;15295;42.658;23.374;2023-09-07T02:15:29;95073.47;;;24.43;52.30
27958;BME280;15295;42.658;23.374;2023-09-07T02:17:57;95072.16;;;24.29;52.77
27958;BME280;15295;42.658;23.374;2023-09-07T02:20:23;95105.19;;;24.40;53.04
27958;BME280;15295;42.658;23.374;2023-09-07T02:22:53;95083.16;;;24.33;52.99
27958;BME280;15295;42.658;23.374;2023-09-07T02:25:36;95081.31;;;24.30;53.20
27958;BME280;15295;42.658;23.374;2023-09-07T02:28:53;95110.81;;;24.55;52.57
27958;BME280;15295;42.658;23.374;2023-09-07T02:31:49;95092.84;;;24.46;52.42
27958;BME280;15295;42.658;23.374;2023-09-07T02:34:31;95109.94;;;24.48;52.56
27958;BME280;15295;42.658;23.374;2023-09-07T02:37:13;95052.31;;;24.27;52.48
27958;BME280;15295;42.658;23.374;2023-09-07T02:40:00;95097.31;;;24.53;52.46
27958;BME280;15295;42.658;23.374;2023-09-07T02:42:50;95065.56;;;24.41;52.02
27958;BME280;15295;42.658;23.374;2023-09-07T02:45:36;95088.03;;;24.47;52.40
27958;BME280;15295;42.658;23.374;2023-09-07T02:48:07;95114.91;;;24.68;52.50
27958;BME280;15295;42.658;23.374;2023-09-07T02:51:14;95058.63;;;24.37;52.15
27958;BME280;15295;42.658;23.374;2023-09-07T02:53:48;95079.53;;;24.41;52.40
27958;BME280;15295;42.658;23.374;2023-09-07T02:56:35;95099.94;;;24.57;52.45
27958;BME280;15295;42.658;23.374;2023-09-07T02:59:12;95097.75;;;24.61;52.20
27958;BME280;15295;42.658;23.374;2023-09-07T03:01:45;95084.09;;;24.30;52.96
27958;BME280;15295;42.658;23.374;2023-09-07T03:04:33;95121.56;;;24.47;53.28
27958;BME280;15295;42.658;23.374;2023-09-07T03:07:20;95123.81;;;24.34;53.62
27958;BME280;15295;42.658;23.374;2023-09-07T03:10:09;95099.41;;;24.11;54.25
27958;BME280;15295;42.658;23.374;2023-09-07T03:13:16;95081.31;;;23.97;54.71
27958;BME280;15295;42.658;23.374;2023-09-07T03:15:53;95117.56;;;24.06;54.92
27958;BME280;15295;42.658;23.374;2023-09-07T03:18:23;95089.69;;;23.97;55.04
27958;BME280;15295;42.658;23.374;2023-09-07T03:20:53;95100.97;;;24.12;54.67
27958;BME280;15295;42.658;23.374;2023-09-07T03:23:44;95111.69;;;24.04;55.34
27958;BME280;15295;42.658;23.374;2023-09-07T03:26:35;95072.09;;;23.73;55.76
27958;BME280;15295;42.658;23.374;2023-09-07T03:29:07;95088.44;;;23.89;55.82
27958;BME280;15295;42.658;23.374;2023-09-07T03:31:40;95062.16;;;23.72;55.82
27958;BME280;15295;42.658;23.374;2023-09-07T03:34:29;95088.50;;;23.80;56.47
27958;BME280;15295;42.658;23.374;2023-09-07T03:37:08;95063.13;;;23.60;56.08
27958;BME280;15295;42.658;23.374;2023-09-07T03:39:52;95116.66;;;23.91;56.14
27958;BME280;15295;42.658;23.374;2023-09-07T03:42:45;95056.03;;;23.50;56.36
27958;BME280;15295;42.658;23.374;2023-09-07T03:45:12;95074.59;;;23.62;56.43
27958;BME280;15295;42.658;23.374;2023-09-07T03:47:47;95106.47;;;23.79;56.33
27958;BME280;15295;42.658;23.374;2023-09-07T03:50:41;95122.63;;;23.75;56.68
27958;BME280;15295;42.658;23.374;2023-09-07T03:53:21;95098.50;;;23.54;56.96
27958;BME280;15295;42.658;23.374;2023-09-07T03:56:03;95133.47;;;23.82;57.07
27958;BME280;15295;42.658;23.374;2023-09-07T03:58:51;95135.00;;;23.83;56.96
27958;BME280;15295;42.658;23.374;2023-09-07T04:01:42;95103.44;;;23.59;56.84
27958;BME280;15295;42.658;23.374;2023-09-07T04:04:26;95079.13;;;23.50;56.96
27958;BME280;15295;42.658;23.374;2023-09-07T04:07:26;95112.25;;;23.66;56.93
27958;BME280;15295;42.658;23.374;2023-09-07T04:09:53;95149.53;;;23.96;56.67
27958;BME280;15295;42.658;23.374;2023-09-07T04:12:24;95089.47;;;23.59;56.52
27958;BME280;15295;42.658;23.374;2023-09-07T04:15:06;95103.72;;;23.70;56.61
27958;BME280;15295;42.658;23.374;2023-09-07T04:17:38;95147.22;;;23.95;56.68
27958;BME280;15295;42.658;23.374;2023-09-07T04:20:24;95106.97;;;23.68;57.02
27958;BME280;15295;42.658;23.374;2023-09-07T04:22:59;95098.13;;;23.70;56.82
27958;BME280;15295;42.658;23.374;2023-09-07T04:25:49;95146.75;;;24.05;56.42
27958;BME280;15295;42.658;23.374;2023-09-07T04:31:11;95138.38;;;23.96;56.58
27958;BME280;15295;42.658;23.374;2023-09-07T04:33:43;95135.88;;;23.98;56.95
27958;BME280;15295;42.658;23.374;2023-09-07T04:36:17;95115.75;;;23.85;56.96
27958;BME280;15295;42.658;23.374;2023-09-07T04:39:07;95142.06;;;24.02;56.54
27958;BME280;15295;42.658;23.374;2023-09-07T04:41:54;95102.03;;;23.63;56.84
27958;BME280;15295;42.658;23.374;2023-09-07T04:44:50;95117.53;;;23.64;57.47
27958;BME280;15295;42.658;23.374;2023-09-07T04:47:19;95094.78;;;23.48;57.36
27958;BME280;15295;42.658;23.374;2023-09-07T04:50:00;95126.06;;;23.61;57.13
27958;BME280;15295;42.658;23.374;2023-09-07T04:52:54;95158.28;;;23.80;57.42
27958;BME280;15295;42.658;23.374;2023-09-07T05:05:14;95122.03;;;23.53;56.65
27958;BME280;15295;42.658;23.374;2023-09-07T05:08:02;95148.03;;;23.77;56.69
27958;BME280;15295;42.658;23.374;2023-09-07T05:11:01;95136.88;;;23.86;56.32
27958;BME280;15295;42.658;23.374;2023-09-07T05:13:49;95168.13;;;24.08;55.69
27958;BME280;15295;42.658;23.374;2023-09-07T05:16:21;95162.78;;;24.28;55.42
27958;BME280;15295;42.658;23.374;2023-09-07T05:19:05;95141.00;;;24.41;54.68
27958;BME280;15295;42.658;23.374;2023-09-07T05:21:31;95170.66;;;24.72;54.58
27958;BME280;15295;42.658;23.374;2023-09-07T05:24:12;95158.53;;;24.75;53.97
27958;BME280;15295;42.658;23.374;2023-09-07T05:26:47;95175.81;;;24.97;53.58
27958;BME280;15295;42.658;23.374;2023-09-07T05:29:35;95175.63;;;25.00;53.37
27958;BME280;15295;42.658;23.374;2023-09-07T05:32:14;95147.78;;;24.82;53.29
27958;BME280;15295;42.658;23.374;2023-09-07T05:34:55;95152.09;;;25.07;52.92
27958;BME280;15295;42.658;23.374;2023-09-07T05:37:49;95146.91;;;25.00;52.47
27958;BME280;15295;42.658;23.374;2023-09-07T05:43:05;95119.94;;;24.88;52.30
27958;BME280;15295;42.658;23.374;2023-09-07T05:46:14;95177.31;;;25.45;51.69
27958;BME280;15295;42.658;23.374;2023-09-07T05:49:09;95138.13;;;25.07;52.09
27958;BME280;15295;42.658;23.374;2023-09-07T05:52:10;95151.28;;;25.30;51.52
27958;BME280;15295;42.658;23.374;2023-09-07T05:55:16;95158.25;;;25.35;51.31
27958;BME280;15295;42.658;23.374;2023-09-07T05:58:15;95130.25;;;25.20;50.94
27958;BME280;15295;42.658;23.374;2023-09-07T06:01:05;95149.56;;;25.33;51.35
27958;BME280;15295;42.658;23.374;2023-09-07T06:04:19;95180.03;;;25.54;51.19
27958;BME280;15295;42.658;23.374;2023-09-07T06:07:04;95157.44;;;25.43;50.98
27958;BME280;15295;42.658;23.374;2023-09-07T06:10:04;95181.78;;;25.66;50.97
27958;BME280;15295;42.658;23.374;2023-09-07T06:12:39;95158.44;;;25.69;50.41
27958;BME280;15295;42.658;23.374;2023-09-07T06:15:38;95152.34;;;25.85;49.49
27958;BME280;15295;42.658;23.374;2023-09-07T06:18:10;95161.81;;;26.02;49.32
27958;BME280;15295;42.658;23.374;2023-09-07T06:21:18;95134.72;;;26.09;48.15
27958;BME280;15295;42.658;23.374;2023-09-07T06:23:51;95143.19;;;26.29;47.53
27958;BME280;15295;42.658;23.374;2023-09-07T06:26:45;95129.88;;;26.24;47.13
27958;BME280;15295;42.658;23.374;2023-09-07T06:29:21;95190.09;;;26.63;46.77
27958;BME280;15295;42.658;23.374;2023-09-07T06:31:48;95167.75;;;26.54;46.29
27958;BME280;15295;42.658;23.374;2023-09-07T06:34:26;95196.28;;;26.82;45.91
27958;BME280;15295;42.658;23.374;2023-09-07T06:37:06;95190.22;;;26.89;45.73
27958;BME280;15295;42.658;23.374;2023-09-07T06:39:50;95163.38;;;26.82;45.01
27958;BME280;15295;42.658;23.374;2023-09-07T06:42:40;95192.06;;;27.12;45.00
27958;BME280;15295;42.658;23.374;2023-09-07T06:45:08;95165.16;;;27.00;44.71
27958;BME280;15295;42.658;23.374;2023-09-07T06:47:58;95175.19;;;27.06;44.24
27958;BME280;15295;42.658;23.374;2023-09-07T06:50:42;95197.66;;;27.46;43.89
27958;BME280;15295;42.658;23.374;2023-09-07T06:54:07;95161.72;;;27.50;43.83
27958;BME280;15295;42.658;23.374;2023-09-07T06:57:23;95158.88;;;27.71;42.28
27958;BME280;15295;42.658;23.374;2023-09-07T07:02:56;95164.91;;;28.09;41.17
27958;BME280;15295;42.658;23.374;2023-09-07T07:06:05;95128.84;;;28.08;40.67
27958;BME280;15295;42.658;23.374;2023-09-07T07:14:38;95178.53;;;28.84;39.74
27958;BME280;15295;42.658;23.374;2023-09-07T07:17:28;95185.16;;;28.76;40.28
27958;BME280;15295;42.658;23.374;2023-09-07T07:22:56;95177.41;;;28.65;40.39
27958;BME280;15295;42.658;23.374;2023-09-07T07:25:54;95176.56;;;28.59;40.48
27958;BME280;15295;42.658;23.374;2023-09-07T07:29:02;95165.34;;;28.34;40.00
27958;BME280;15295;42.658;23.374;2023-09-07T07:32:09;95173.31;;;28.35;40.55
27958;BME280;15295;42.658;23.374;2023-09-07T07:35:04;95204.69;;;28.59;40.17
27958;BME280;15295;42.658;23.374;2023-09-07T07:40:32;95195.22;;;28.57;40.13
27958;BME280;15295;42.658;23.374;2023-09-07T07:43:21;95147.47;;;28.31;39.63
27958;BME280;15295;42.658;23.374;2023-09-07T07:46:20;95195.16;;;28.51;39.45
27958;BME280;15295;42.658;23.374;2023-09-07T07:49:03;95201.13;;;28.59;39.38
27958;BME280;15295;42.658;23.374;2023-09-07T07:54:16;95179.06;;;28.20;38.61
27958;BME280;15295;42.658;23.374;2023-09-07T07:56:45;95158.41;;;27.98;38.59
27958;BME280;15295;42.658;23.374;2023-09-07T07:59:44;95178.69;;;28.07;39.08
27958;BME280;15295;42.658;23.374;2023-09-07T08:02:41;95203.94;;;28.33;39.60
27958;BME280;15295;42.658;23.374;2023-09-07T08:05:33;95173.97;;;28.24;39.23
27958;BME280;15295;42.658;23.374;2023-09-07T08:16:14;95195.25;;;28.31;39.79
27958;BME280;15295;42.658;23.374;2023-09-07T08:21:14;95153.44;;;28.13;39.45
27958;BME280;15295;42.658;23.374;2023-09-07T08:24:12;95178.38;;;28.31;38.95
27958;BME280;15295;42.658;23.374;2023-09-07T08:26:49;95167.41;;;28.33;38.98
27958;BME280;15295;42.658;23.374;2023-09-07T08:30:03;95192.69;;;28.59;38.64
27958;BME280;15295;42.658;23.374;2023-09-07T08:36:09;95140.19;;;27.93;38.40
27958;BME280;15295;42.658;23.374;2023-09-07T08:39:32;95191.06;;;28.21;38.63
27958;BME280;15295;42.658;23.374;2023-09-07T08:42:47;95163.41;;;28.14;37.86
27958;BME280;15295;42.658;23.374;2023-09-07T08:45:55;95172.13;;;28.16;37.22
27958;BME280;15295;42.658;23.374;2023-09-07T08:54:31;95154.31;;;28.24;36.99
27958;BME280;15295;42.658;23.374;2023-09-07T08:57:24;95163.81;;;28.33;37.10
27958;BME280;15295;42.658;23.374;2023-09-07T09:00:49;95139.66;;;28.15;36.53
27958;BME280;15295;42.658;23.374;2023-09-07T09:03:24;95144.97;;;28.07;36.60
27958;BME280;15295;42.658;23.374;2023-09-07T10:01:43;95101.66;;;29.80;32.11
27958;BME280;15295;42.658;23.374;2023-09-07T10:04:15;95110.13;;;29.91;31.92
27958;BME280;15295;42.658;23.374;2023-09-07T10:07:07;95154.75;;;30.14;31.71
27958;BME280;15295;42.658;23.374;2023-09-07T17:26:01;95113.41;;;28.23;37.87
27958;BME280;15295;42.658;23.374;2023-09-07T17:29:01;95067.38;;;27.90;37.25
27958;BME280;15295;42.658;23.374;2023-09-07T17:32:45;95092.13;;;28.11;36.58
27958;BME280;15295;42.658;23.374;2023-09-07T17:35:17;95112.16;;;28.24;36.36
27958;BME280;15295;42.658;23.374;2023-09-07T17:41:11;95062.47;;;27.85;36.75
27958;BME280;15295;42.658;23.374;2023-09-07T17:46:43;95113.38;;;28.18;37.17
27958;BME280;15295;42.658;23.374;2023-09-07T17:49:10;95075.81;;;27.90;37.93
27958;BME280;15295;42.658;23.374;2023-09-07T17:51:49;95106.34;;;28.02;37.54
27958;BME280;15295;42.658;23.374;2023-09-07T18:02:57;95114.31;;;27.84;38.19
27958;BME280;15295;42.658;23.374;2023-09-07T18:05:35;95108.38;;;27.76;38.33
27958;BME280;15295;42.658;23.374;2023-09-07T18:08:20;95129.91;;;27.85;38.13
27958;BME280;15295;42.658;23.374;2023-09-07T18:28:53;95115.84;;;27.59;38.90
27958;BME280;15295;42.658;23.374;2023-09-07T18:31:52;95112.06;;;27.62;38.62
27958;BME280;15295;42.658;23.374;2023-09-07T18:34:56;95133.88;;;27.73;38.77
27958;BME280;15295;42.658;23.374;2023-09-07T18:38:22;95133.06;;;27.67;39.00
27958;BME280;15295;42.658;23.374;2023-09-07T18:42:29;95098.41;;;27.49;38.98
27958;BME280;15295;42.658;23.374;2023-09-07T18:56:11;95133.22;;;27.58;39.58
27958;BME280;15295;42.658;23.374;2023-09-07T18:59:07;95097.72;;;27.34;39.79
27958;BME280;15295;42.658;23.374;2023-09-07T20:38:54;95107.72;;;27.15;40.95
27958;BME280;15295;42.658;23.374;2023-09-07T20:41:56;95075.03;;;26.92;39.91
27958;BME280;15295;42.658;23.374;2023-09-07T20:44:47;95057.03;;;26.79;39.04
27958;BME280;15295;42.658;23.374;2023-09-07T20:47:52;95055.38;;;26.72;39.16
27958;BME280;15295;42.658;23.374;2023-09-07T20:50:19;95100.63;;;27.00;38.92
27958;BME280;15295;42.658;23.374;2023-09-07T20:52:58;95113.78;;;27.14;38.80
27958;BME280;15295;42.658;23.374;2023-09-07T20:55:24;95062.34;;;26.77;38.89
27958;BME280;15295;42.658;23.374;2023-09-07T20:57:53;95096.00;;;26.97;39.26
27958;BME280;15295;42.658;23.374;2023-09-07T21:00:42;95088.84;;;26.96;38.75
27958;BME280;15295;42.658;23.374;2023-09-07T21:03:34;95061.84;;;26.78;38.71
27958;BME280;15295;42.658;23.374;2023-09-07T21:06:34;95064.94;;;26.80;38.65
27958;BME280;15295;42.658;23.374;2023-09-07T21:09:07;95090.88;;;26.95;39.53
27958;BME280;15295;42.658;23.374;2023-09-07T21:11:48;95047.78;;;26.72;37.19
27958;BME280;15295;42.658;23.374;2023-09-07T21:14:23;95095.50;;;26.98;37.22
27958;BME280;15295;42.658;23.374;2023-09-07T21:17:13;95068.25;;;26.79;37.41
27958;BME280;15295;42.658;23.374;2023-09-07T21:19:55;95097.75;;;26.94;37.44
27958;BME280;15295;42.658;23.374;2023-09-07T21:22:28;95116.25;;;27.06;37.15
27958;BME280;15295;42.658;23.374;2023-09-07T21:24:56;95088.78;;;26.90;37.46
27958;BME280;15295;42.658;23.374;2023-09-07T21:27:24;95109.53;;;26.98;37.39
27958;BME280;15295;42.658;23.374;2023-09-07T21:29:58;95106.66;;;26.93;36.58
27958;BME280;15295;42.658;23.374;2023-09-07T21:32:28;95074.66;;;26.64;36.83
27958;BME280;15295;42.658;23.374;2023-09-07T21:37:35;95110.38;;;26.84;36.83
27958;BME280;15295;42.658;23.374;2023-09-07T21:40:23;95122.72;;;26.92;37.37
27958;BME280;15295;42.658;23.374;2023-09-07T21:43:22;95104.41;;;26.77;37.06
27958;BME280;15295;42.658;23.374;2023-09-07T21:46:12;95126.44;;;26.84;37.25
27958;BME280;15295;42.658;23.374;2023-09-07T21:48:39;95127.47;;;26.86;37.33
27958;BME280;15295;42.658;23.374;2023-09-07T21:51:26;95075.47;;;26.50;36.91
27958;BME280;15295;42.658;23.374;2023-09-07T21:53:53;95087.47;;;26.51;37.14
27958;BME280;15295;42.658;23.374;2023-09-07T21:56:21;95123.53;;;26.78;37.39
27958;BME280;15295;42.658;23.374;2023-09-07T21:58:48;95101.56;;;26.56;37.35
27958;BME280;15295;42.658;23.374;2023-09-07T22:01:20;95083.25;;;26.41;37.34
27958;BME280;15295;42.658;23.374;2023-09-07T22:03:56;95112.56;;;26.60;37.25
27958;BME280;15295;42.658;23.374;2023-09-07T22:06:23;95125.59;;;26.63;37.37
27958;BME280;15295;42.658;23.374;2023-09-07T22:08:53;95104.19;;;26.45;37.56
27958;BME280;15295;42.658;23.374;2023-09-07T22:11:22;95105.88;;;26.37;37.69
27958;BME280;15295;42.658;23.374;2023-09-07T22:13:58;95076.25;;;26.16;37.67
27958;BME280;15295;42.658;23.374;2023-09-07T22:16:40;95075.47;;;26.16;37.93
27958;BME280;15295;42.658;23.374;2023-09-07T22:19:16;95073.25;;;26.05;38.16
27958;BME280;15295;42.658;23.374;2023-09-07T22:21:47;95069.81;;;25.95;38.10
27958;BME280;15295;42.658;23.374;2023-09-07T22:24:12;95067.47;;;25.94;38.32
27958;BME280;15295;42.658;23.374;2023-09-07T22:27:05;95113.84;;;26.10;38.47
27958;BME280;15295;42.658;23.374;2023-09-07T22:29:34;95094.44;;;25.91;38.85
27958;BME280;15295;42.658;23.374;2023-09-07T22:32:05;95092.59;;;25.88;39.34
27958;BME280;15295;42.658;23.374;2023-09-07T22:34:37;95134.13;;;26.05;39.37
27958;BME280;15295;42.658;23.374;2023-09-07T22:37:04;95133.94;;;25.93;40.03
27958;BME280;15295;42.658;23.374;2023-09-07T22:39:32;95085.66;;;25.55;40.69
27958;BME280;15295;42.658;23.374;2023-09-07T22:41:59;95093.94;;;25.49;41.00
27958;BME280;15295;42.658;23.374;2023-09-07T22:44:24;95096.00;;;25.49;41.38
27958;BME280;15295;42.658;23.374;2023-09-07T22:52:02;95124.81;;;25.40;42.44
27958;BME280;15295;42.658;23.374;2023-09-07T22:54:31;95074.38;;;25.11;42.83
27958;BME280;15295;42.658;23.374;2023-09-07T22:57:09;95110.38;;;25.18;43.17
27958;BME280;15295;42.658;23.374;2023-09-07T22:59:38;95139.22;;;25.24;43.36
27958;BME280;15295;42.658;23.374;2023-09-07T23:02:05;95113.03;;;24.98;43.46
27958;BME280;15295;42.658;23.374;2023-09-07T23:09:44;95108.28;;;24.89;44.29
27958;BME280;15295;42.658;23.374;2023-09-07T23:12:11;95118.94;;;25.00;44.50
27958;BME280;15295;42.658;23.374;2023-09-07T23:14:39;95113.75;;;24.84;44.78
27958;BME280;15295;42.658;23.374;2023-09-07T23:17:14;95121.59;;;24.94;44.84
27958;BME280;15295;42.658;23.374;2023-09-07T23:19:42;95117.72;;;24.92;45.11
27958;BME280;15295;42.658;23.374;2023-09-07T23:22:07;95100.19;;;24.68;45.40
27958;BME280;15295;42.658;23.374;2023-09-07T23:24:37;95151.94;;;25.10;45.31
27958;BME280;15295;42.658;23.374;2023-09-07T23:27:07;95137.75;;;24.76;45.74
27958;BME280;15295;42.658;23.374;2023-09-07T23:29:43;95112.25;;;24.74;45.79
27958;BME280;15295;42.658;23.374;2023-09-07T23:32:12;95097.31;;;24.53;45.60
27958;BME280;15295;42.658;23.374;2023-09-07T23:34:40;95117.25;;;24.70;45.77
27958;BME280;15295;42.658;23.374;2023-09-07T23:37:06;95128.31;;;24.88;45.68
27958;BME280;15295;42.658;23.374;2023-09-07T23:39:35;95111.31;;;24.77;45.52
27958;BME280;15295;42.658;23.374;2023-09-07T23:42:01;95095.81;;;24.76;45.87
27958;BME280;15295;42.658;23.374;2023-09-07T23:44:27;95127.38;;;24.91;45.98
27958;BME280;15295;42.658;23.374;2023-09-07T23:46:56;95100.47;;;24.70;46.36
27958;BME280;15295;42.658;23.374;2023-09-07T23:49:24;95152.50;;;25.00;46.12
27958;BME280;15295;42.658;23.374;2023-09-07T23:51:55;95144.22;;;25.05;46.50
27958;BME280;15295;42.658;23.374;2023-09-07T23:54:22;95126.91;;;24.92;46.28
27958;BME280;15295;42.658;23.374;2023-09-07T23:56:50;95134.06;;;24.93;46.43
27958;BME280;15295;42.658;23.374;2023-09-07T23:59:20;95119.06;;;24.82;46.17
